Terminal Aerodrome Forecast
Issued by NWS

Home | Current Version | Previous Version | Text Only | Print | Product List | Glossary On
Versions: 1 2 3 4 5 6 7 8 9 10 11 12 13 14 15
535
FTUS44 KTSA 272339
TAFRVS
TAF
KRVS 272339Z 2800/2824 13008KT P6SM BKN100
      TEMPO 2802/2806 5SM -SHRA BKN040
     FM281200 17009KT P6SM BKN020
     FM281900 17007KT P6SM BKN035=

USA.gov is the U.S. government's official web portal to all federal, state and local government web resources and services.